METAR LIMJ - Aeroporto di Genova Sestri GOA

Genova / Sestri, Italy (LIMJ) 44-25N 008-51E 3M

Sep 21, 2018 - 10:20 AM EDT / 2018.09.21 1420 UTC

Wind: from the SSW (210 degrees) at 6 MPH (5 KT) (direction variable):0

Visibility: greater than 7 mile(s):0

Temperature: 80 F (27 C)

Dew Point: 69 F (21 C)

Relative Humidity: 69%

Pressure (altimeter): 29.97 in. Hg (1015 hPa)

ob: LIMJ 211420Z 21005KT 160V260 CAVOK 27/21 Q1015

cycle: 14

Dati METAR in tempo reale



Ritieni il contenuto di questa pagina incompleto, non attendibile oppure oggetto di altre problematiche? INVIA UNA SEGNALAZIONE Grazie!